sensor_id;sensor_type;location;lat;lon;timestamp;P1;durP1;ratioP1;P2;durP2;ratioP2
32876;SDS011;19226;51.600;8.034;2023-01-29T00:01:04;36.20;;;19.45;;
32876;SDS011;19226;51.600;8.034;2023-01-29T00:03:33;41.17;;;20.45;;
32876;SDS011;19226;51.600;8.034;2023-01-29T00:06:02;42.75;;;20.52;;
32876;SDS011;19226;51.600;8.034;2023-01-29T00:08:39;42.28;;;20.55;;
32876;SDS011;19226;51.600;8.034;2023-01-29T00:11:06;39.78;;;20.20;;
32876;SDS011;19226;51.600;8.034;2023-01-29T00:13:34;36.60;;;18.80;;
32876;SDS011;19226;51.600;8.034;2023-01-29T00:19:11;40.25;;;20.55;;
32876;SDS011;19226;51.600;8.034;2023-01-29T00:21:40;40.90;;;20.63;;
32876;SDS011;19226;51.600;8.034;2023-01-29T00:24:12;43.80;;;20.80;;
32876;SDS011;19226;51.600;8.034;2023-01-29T00:26:38;39.10;;;20.13;;
32876;SDS011;19226;51.600;8.034;2023-01-29T00:29:05;44.90;;;21.90;;
32876;SDS011;19226;51.600;8.034;2023-01-29T00:31:31;43.20;;;20.95;;
32876;SDS011;19226;51.600;8.034;2023-01-29T00:36:43;44.03;;;21.33;;
32876;SDS011;19226;51.600;8.034;2023-01-29T00:39:11;41.53;;;21.80;;
32876;SDS011;19226;51.600;8.034;2023-01-29T00:41:37;41.85;;;20.55;;
32876;SDS011;19226;51.600;8.034;2023-01-29T00:44:23;43.35;;;20.13;;
32876;SDS011;19226;51.600;8.034;2023-01-29T00:47:08;44.58;;;20.25;;
32876;SDS011;19226;51.600;8.034;2023-01-29T00:49:53;41.90;;;19.95;;
32876;SDS011;19226;51.600;8.034;2023-01-29T00:52:20;47.58;;;19.90;;
32876;SDS011;19226;51.600;8.034;2023-01-29T00:57:20;37.85;;;19.05;;
32876;SDS011;19226;51.600;8.034;2023-01-29T00:59:47;42.30;;;19.27;;
32876;SDS011;19226;51.600;8.034;2023-01-29T01:02:13;44.08;;;21.50;;
32876;SDS011;19226;51.600;8.034;2023-01-29T01:05:00;39.67;;;20.48;;
32876;SDS011;19226;51.600;8.034;2023-01-29T01:07:29;40.90;;;20.85;;
32876;SDS011;19226;51.600;8.034;2023-01-29T01:09:57;40.28;;;20.38;;
32876;SDS011;19226;51.600;8.034;2023-01-29T01:12:48;46.20;;;21.13;;
32876;SDS011;19226;51.600;8.034;2023-01-29T01:15:15;45.42;;;20.70;;
32876;SDS011;19226;51.600;8.034;2023-01-29T01:18:02;42.30;;;20.13;;
32876;SDS011;19226;51.600;8.034;2023-01-29T01:20:29;42.40;;;20.08;;
32876;SDS011;19226;51.600;8.034;2023-01-29T01:22:58;38.42;;;19.50;;
32876;SDS011;19226;51.600;8.034;2023-01-29T01:28:59;44.13;;;19.98;;
32876;SDS011;19226;51.600;8.034;2023-01-29T01:31:25;41.75;;;19.52;;
32876;SDS011;19226;51.600;8.034;2023-01-29T01:37:40;37.78;;;18.38;;
32876;SDS011;19226;51.600;8.034;2023-01-29T01:40:19;40.03;;;18.95;;
32876;SDS011;19226;51.600;8.034;2023-01-29T01:42:53;43.90;;;21.30;;
32876;SDS011;19226;51.600;8.034;2023-01-29T01:48:27;40.25;;;20.40;;
32876;SDS011;19226;51.600;8.034;2023-01-29T01:54:06;38.88;;;19.05;;
32876;SDS011;19226;51.600;8.034;2023-01-29T01:56:55;36.60;;;19.42;;
32876;SDS011;19226;51.600;8.034;2023-01-29T01:59:37;43.15;;;20.70;;
32876;SDS011;19226;51.600;8.034;2023-01-29T02:05:28;44.13;;;21.08;;
32876;SDS011;19226;51.600;8.034;2023-01-29T02:08:30;41.42;;;19.30;;
32876;SDS011;19226;51.600;8.034;2023-01-29T02:11:20;46.60;;;21.85;;
32876;SDS011;19226;51.600;8.034;2023-01-29T02:13:49;43.53;;;20.02;;
32876;SDS011;19226;51.600;8.034;2023-01-29T02:16:24;44.63;;;19.90;;
32876;SDS011;19226;51.600;8.034;2023-01-29T02:28:04;47.03;;;19.95;;
32876;SDS011;19226;51.600;8.034;2023-01-29T02:30:58;45.10;;;20.15;;
32876;SDS011;19226;51.600;8.034;2023-01-29T02:33:40;51.28;;;21.25;;
32876;SDS011;19226;51.600;8.034;2023-01-29T02:42:11;41.13;;;19.73;;
32876;SDS011;19226;51.600;8.034;2023-01-29T02:50:02;44.70;;;20.63;;
32876;SDS011;19226;51.600;8.034;2023-01-29T02:55:41;47.47;;;21.83;;
32876;SDS011;19226;51.600;8.034;2023-01-29T03:01:12;48.17;;;21.48;;
32876;SDS011;19226;51.600;8.034;2023-01-29T03:07:07;46.72;;;20.90;;
32876;SDS011;19226;51.600;8.034;2023-01-29T03:10:51;41.90;;;20.30;;
32876;SDS011;19226;51.600;8.034;2023-01-29T03:13:19;49.92;;;20.48;;
32876;SDS011;19226;51.600;8.034;2023-01-29T03:15:48;48.92;;;22.67;;
32876;SDS011;19226;51.600;8.034;2023-01-29T03:18:40;48.20;;;23.52;;
32876;SDS011;19226;51.600;8.034;2023-01-29T03:21:13;50.88;;;22.42;;
32876;SDS011;19226;51.600;8.034;2023-01-29T03:24:05;44.58;;;21.08;;
32876;SDS011;19226;51.600;8.034;2023-01-29T03:26:55;48.25;;;21.08;;
32876;SDS011;19226;51.600;8.034;2023-01-29T03:29:47;43.67;;;21.67;;
32876;SDS011;19226;51.600;8.034;2023-01-29T03:32:45;46.00;;;21.73;;
32876;SDS011;19226;51.600;8.034;2023-01-29T03:35:20;42.17;;;21.48;;
32876;SDS011;19226;51.600;8.034;2023-01-29T03:37:58;50.33;;;22.88;;
32876;SDS011;19226;51.600;8.034;2023-01-29T03:46:34;45.50;;;21.70;;
32876;SDS011;19226;51.600;8.034;2023-01-29T03:49:14;45.35;;;21.27;;
32876;SDS011;19226;51.600;8.034;2023-01-29T03:52:17;47.60;;;21.92;;
32876;SDS011;19226;51.600;8.034;2023-01-29T03:55:08;46.67;;;21.33;;
32876;SDS011;19226;51.600;8.034;2023-01-29T04:00:35;48.90;;;21.98;;
32876;SDS011;19226;51.600;8.034;2023-01-29T04:03:26;54.42;;;24.42;;
32876;SDS011;19226;51.600;8.034;2023-01-29T04:06:10;47.22;;;23.17;;
32876;SDS011;19226;51.600;8.034;2023-01-29T04:09:11;50.60;;;23.13;;
32876;SDS011;19226;51.600;8.034;2023-01-29T04:11:49;55.70;;;23.95;;
32876;SDS011;19226;51.600;8.034;2023-01-29T04:17:17;52.03;;;23.70;;
32876;SDS011;19226;51.600;8.034;2023-01-29T04:20:08;53.22;;;24.90;;
32876;SDS011;19226;51.600;8.034;2023-01-29T04:22:37;54.97;;;23.92;;
32876;SDS011;19226;51.600;8.034;2023-01-29T04:28:19;52.05;;;23.10;;
32876;SDS011;19226;51.600;8.034;2023-01-29T04:30:32;52.95;;;22.63;;
32876;SDS011;19226;51.600;8.034;2023-01-29T04:36:00;50.40;;;22.88;;
32876;SDS011;19226;51.600;8.034;2023-01-29T04:38:57;53.83;;;23.45;;
32876;SDS011;19226;51.600;8.034;2023-01-29T04:44:51;53.25;;;23.58;;
32876;SDS011;19226;51.600;8.034;2023-01-29T04:53:09;57.03;;;23.38;;
32876;SDS011;19226;51.600;8.034;2023-01-29T04:56:19;49.22;;;22.13;;
32876;SDS011;19226;51.600;8.034;2023-01-29T04:58:58;50.40;;;23.17;;
32876;SDS011;19226;51.600;8.034;2023-01-29T05:04:15;45.25;;;22.77;;
32876;SDS011;19226;51.600;8.034;2023-01-29T05:06:51;46.92;;;22.67;;
32876;SDS011;19226;51.600;8.034;2023-01-29T05:09:18;54.88;;;23.75;;
32876;SDS011;19226;51.600;8.034;2023-01-29T05:11:44;48.00;;;24.55;;
32876;SDS011;19226;51.600;8.034;2023-01-29T05:17:35;50.38;;;24.02;;
32876;SDS011;19226;51.600;8.034;2023-01-29T05:20:02;51.25;;;24.73;;
32876;SDS011;19226;51.600;8.034;2023-01-29T05:22:29;48.05;;;24.25;;
32876;SDS011;19226;51.600;8.034;2023-01-29T05:24:57;49.15;;;24.35;;
32876;SDS011;19226;51.600;8.034;2023-01-29T05:27:33;49.33;;;23.33;;
32876;SDS011;19226;51.600;8.034;2023-01-29T05:30:19;50.80;;;23.02;;
32876;SDS011;19226;51.600;8.034;2023-01-29T05:32:52;51.47;;;25.63;;
32876;SDS011;19226;51.600;8.034;2023-01-29T05:35:21;54.80;;;26.25;;
32876;SDS011;19226;51.600;8.034;2023-01-29T05:37:47;55.45;;;26.35;;
32876;SDS011;19226;51.600;8.034;2023-01-29T05:43:00;53.78;;;25.70;;
32876;SDS011;19226;51.600;8.034;2023-01-29T05:45:29;56.75;;;26.27;;
32876;SDS011;19226;51.600;8.034;2023-01-29T05:47:55;56.63;;;24.38;;
32876;SDS011;19226;51.600;8.034;2023-01-29T05:50:29;51.47;;;24.70;;
32876;SDS011;19226;51.600;8.034;2023-01-29T05:52:59;57.53;;;25.70;;
32876;SDS011;19226;51.600;8.034;2023-01-29T05:55:28;49.33;;;24.80;;
32876;SDS011;19226;51.600;8.034;2023-01-29T05:57:56;49.17;;;23.83;;
32876;SDS011;19226;51.600;8.034;2023-01-29T06:00:22;47.28;;;23.60;;
32876;SDS011;19226;51.600;8.034;2023-01-29T06:05:38;46.95;;;23.45;;
32876;SDS011;19226;51.600;8.034;2023-01-29T06:10:49;46.40;;;22.88;;
32876;SDS011;19226;51.600;8.034;2023-01-29T06:13:15;46.40;;;21.92;;
32876;SDS011;19226;51.600;8.034;2023-01-29T06:15:41;50.13;;;22.13;;
32876;SDS011;19226;51.600;8.034;2023-01-29T06:20:54;44.33;;;21.65;;
32876;SDS011;19226;51.600;8.034;2023-01-29T06:23:22;48.23;;;22.13;;
32876;SDS011;19226;51.600;8.034;2023-01-29T06:25:49;45.53;;;21.13;;
32876;SDS011;19226;51.600;8.034;2023-01-29T06:31:57;42.25;;;21.40;;
32876;SDS011;19226;51.600;8.034;2023-01-29T06:34:24;55.45;;;23.50;;
32876;SDS011;19226;51.600;8.034;2023-01-29T06:39:54;45.63;;;22.05;;
32876;SDS011;19226;51.600;8.034;2023-01-29T06:42:20;49.33;;;21.85;;
32876;SDS011;19226;51.600;8.034;2023-01-29T06:45:10;40.45;;;21.30;;
32876;SDS011;19226;51.600;8.034;2023-01-29T06:47:49;44.65;;;22.65;;
32876;SDS011;19226;51.600;8.034;2023-01-29T06:54:03;43.10;;;22.33;;
32876;SDS011;19226;51.600;8.034;2023-01-29T06:59:17;48.03;;;22.48;;
32876;SDS011;19226;51.600;8.034;2023-01-29T07:01:43;54.85;;;25.83;;
32876;SDS011;19226;51.600;8.034;2023-01-29T07:04:15;53.22;;;25.05;;
32876;SDS011;19226;51.600;8.034;2023-01-29T07:06:41;44.15;;;23.60;;
32876;SDS011;19226;51.600;8.034;2023-01-29T07:09:11;52.03;;;23.33;;
32876;SDS011;19226;51.600;8.034;2023-01-29T07:11:50;46.80;;;23.65;;
32876;SDS011;19226;51.600;8.034;2023-01-29T07:14:16;62.60;;;27.02;;
32876;SDS011;19226;51.600;8.034;2023-01-29T07:16:42;54.88;;;27.52;;
32876;SDS011;19226;51.600;8.034;2023-01-29T07:19:10;54.87;;;26.47;;
32876;SDS011;19226;51.600;8.034;2023-01-29T07:21:36;49.83;;;25.45;;
32876;SDS011;19226;51.600;8.034;2023-01-29T07:24:03;56.42;;;25.17;;
32876;SDS011;19226;51.600;8.034;2023-01-29T07:26:29;51.28;;;25.10;;
32876;SDS011;19226;51.600;8.034;2023-01-29T07:28:55;54.40;;;25.80;;
32876;SDS011;19226;51.600;8.034;2023-01-29T07:31:26;54.90;;;25.50;;
32876;SDS011;19226;51.600;8.034;2023-01-29T07:33:52;53.97;;;26.10;;
32876;SDS011;19226;51.600;8.034;2023-01-29T07:36:19;52.33;;;24.80;;
32876;SDS011;19226;51.600;8.034;2023-01-29T07:38:51;55.90;;;25.10;;
32876;SDS011;19226;51.600;8.034;2023-01-29T07:41:20;60.30;;;26.85;;
32876;SDS011;19226;51.600;8.034;2023-01-29T07:43:46;59.47;;;27.90;;
32876;SDS011;19226;51.600;8.034;2023-01-29T07:49:04;51.72;;;26.02;;
32876;SDS011;19226;51.600;8.034;2023-01-29T07:51:30;53.60;;;26.23;;
32876;SDS011;19226;51.600;8.034;2023-01-29T07:56:34;54.22;;;25.83;;
32876;SDS011;19226;51.600;8.034;2023-01-29T07:59:02;50.70;;;24.85;;
32876;SDS011;19226;51.600;8.034;2023-01-29T08:01:28;53.38;;;25.48;;
32876;SDS011;19226;51.600;8.034;2023-01-29T08:04:02;62.45;;;27.73;;
32876;SDS011;19226;51.600;8.034;2023-01-29T08:09:16;55.83;;;25.80;;
32876;SDS011;19226;51.600;8.034;2023-01-29T08:11:45;55.83;;;25.20;;
32876;SDS011;19226;51.600;8.034;2023-01-29T08:14:18;55.72;;;25.77;;
32876;SDS011;19226;51.600;8.034;2023-01-29T08:16:44;53.25;;;25.30;;
32876;SDS011;19226;51.600;8.034;2023-01-29T08:19:10;58.50;;;28.52;;
32876;SDS011;19226;51.600;8.034;2023-01-29T08:21:37;52.15;;;24.27;;
32876;SDS011;19226;51.600;8.034;2023-01-29T08:24:03;56.17;;;26.73;;
32876;SDS011;19226;51.600;8.034;2023-01-29T08:32:01;57.22;;;25.80;;
32876;SDS011;19226;51.600;8.034;2023-01-29T08:39:59;53.67;;;26.88;;
32876;SDS011;19226;51.600;8.034;2023-01-29T08:42:32;51.35;;;26.20;;
32876;SDS011;19226;51.600;8.034;2023-01-29T08:48:02;52.85;;;25.30;;
32876;SDS011;19226;51.600;8.034;2023-01-29T08:50:29;55.17;;;26.42;;
32876;SDS011;19226;51.600;8.034;2023-01-29T08:55:49;72.82;;;33.28;;
32876;SDS011;19226;51.600;8.034;2023-01-29T08:58:24;66.05;;;31.52;;
32876;SDS011;19226;51.600;8.034;2023-01-29T09:03:26;56.42;;;27.13;;
32876;SDS011;19226;51.600;8.034;2023-01-29T09:05:52;57.05;;;26.77;;
32876;SDS011;19226;51.600;8.034;2023-01-29T09:08:19;53.72;;;25.58;;
32876;SDS011;19226;51.600;8.034;2023-01-29T09:10:45;52.90;;;25.77;;
32876;SDS011;19226;51.600;8.034;2023-01-29T09:13:12;54.10;;;25.20;;
32876;SDS011;19226;51.600;8.034;2023-01-29T09:15:38;58.05;;;26.90;;
32876;SDS011;19226;51.600;8.034;2023-01-29T09:18:05;51.05;;;24.98;;
32876;SDS011;19226;51.600;8.034;2023-01-29T09:23:19;57.30;;;25.27;;
32876;SDS011;19226;51.600;8.034;2023-01-29T09:25:45;59.03;;;26.38;;
32876;SDS011;19226;51.600;8.034;2023-01-29T09:28:13;51.38;;;25.13;;
32876;SDS011;19226;51.600;8.034;2023-01-29T09:30:43;48.30;;;22.65;;
32876;SDS011;19226;51.600;8.034;2023-01-29T09:33:10;45.97;;;23.73;;
32876;SDS011;19226;51.600;8.034;2023-01-29T09:35:38;51.78;;;23.63;;
32876;SDS011;19226;51.600;8.034;2023-01-29T09:38:07;53.47;;;23.27;;
32876;SDS011;19226;51.600;8.034;2023-01-29T09:40:44;51.60;;;23.60;;
32876;SDS011;19226;51.600;8.034;2023-01-29T09:48:26;43.50;;;21.88;;
32876;SDS011;19226;51.600;8.034;2023-01-29T09:51:10;54.25;;;24.98;;
32876;SDS011;19226;51.600;8.034;2023-01-29T09:56:37;50.13;;;23.25;;
32876;SDS011;19226;51.600;8.034;2023-01-29T09:59:04;49.20;;;23.30;;
32876;SDS011;19226;51.600;8.034;2023-01-29T10:01:32;54.45;;;24.13;;
32876;SDS011;19226;51.600;8.034;2023-01-29T10:07:30;50.05;;;23.42;;
32876;SDS011;19226;51.600;8.034;2023-01-29T10:22:04;44.78;;;23.10;;
32876;SDS011;19226;51.600;8.034;2023-01-29T10:24:58;43.17;;;21.92;;
32876;SDS011;19226;51.600;8.034;2023-01-29T10:30:51;42.08;;;20.77;;
32876;SDS011;19226;51.600;8.034;2023-01-29T10:33:41;47.05;;;24.27;;
32876;SDS011;19226;51.600;8.034;2023-01-29T10:36:14;49.00;;;23.58;;
32876;SDS011;19226;51.600;8.034;2023-01-29T10:38:47;46.75;;;22.90;;
32876;SDS011;19226;51.600;8.034;2023-01-29T10:59:03;47.58;;;24.02;;
32876;SDS011;19226;51.600;8.034;2023-01-29T11:01:36;45.90;;;23.10;;
32876;SDS011;19226;51.600;8.034;2023-01-29T11:04:04;54.30;;;25.10;;
32876;SDS011;19226;51.600;8.034;2023-01-29T11:11:59;55.78;;;26.63;;
32876;SDS011;19226;51.600;8.034;2023-01-29T11:18:14;46.92;;;22.88;;
32876;SDS011;19226;51.600;8.034;2023-01-29T11:20:42;49.78;;;24.38;;
32876;SDS011;19226;51.600;8.034;2023-01-29T11:23:29;47.75;;;25.10;;
32876;SDS011;19226;51.600;8.034;2023-01-29T11:25:58;31.92;;;17.77;;
32876;SDS011;19226;51.600;8.034;2023-01-29T11:28:35;30.53;;;16.00;;
32876;SDS011;19226;51.600;8.034;2023-01-29T11:31:25;48.35;;;23.05;;
32876;SDS011;19226;51.600;8.034;2023-01-29T11:34:12;44.25;;;23.88;;
32876;SDS011;19226;51.600;8.034;2023-01-29T11:36:45;44.83;;;24.13;;
32876;SDS011;19226;51.600;8.034;2023-01-29T11:39:14;46.88;;;23.58;;
32876;SDS011;19226;51.600;8.034;2023-01-29T11:41:46;46.53;;;22.75;;
32876;SDS011;19226;51.600;8.034;2023-01-29T11:44:51;42.60;;;23.00;;
32876;SDS011;19226;51.600;8.034;2023-01-29T11:50:27;44.88;;;21.73;;
32876;SDS011;19226;51.600;8.034;2023-01-29T11:52:56;51.22;;;23.05;;
32876;SDS011;19226;51.600;8.034;2023-01-29T11:55:27;47.17;;;23.00;;
32876;SDS011;19226;51.600;8.034;2023-01-29T12:01:07;44.35;;;23.50;;
32876;SDS011;19226;51.600;8.034;2023-01-29T12:07:01;45.58;;;23.35;;
32876;SDS011;19226;51.600;8.034;2023-01-29T12:09:53;43.65;;;22.05;;
32876;SDS011;19226;51.600;8.034;2023-01-29T12:12:34;43.17;;;22.95;;
32876;SDS011;19226;51.600;8.034;2023-01-29T12:15:15;49.50;;;24.50;;
32876;SDS011;19226;51.600;8.034;2023-01-29T12:17:51;48.03;;;22.95;;
32876;SDS011;19226;51.600;8.034;2023-01-29T12:23:31;47.92;;;22.52;;
32876;SDS011;19226;51.600;8.034;2023-01-29T12:26:11;42.70;;;23.30;;
32876;SDS011;19226;51.600;8.034;2023-01-29T12:40:21;35.50;;;20.85;;
32876;SDS011;19226;51.600;8.034;2023-01-29T12:48:40;39.65;;;19.33;;
32876;SDS011;19226;51.600;8.034;2023-01-29T12:54:08;36.53;;;20.42;;
32876;SDS011;19226;51.600;8.034;2023-01-29T12:56:49;37.13;;;20.92;;
32876;SDS011;19226;51.600;8.034;2023-01-29T12:59:30;37.72;;;20.50;;
32876;SDS011;19226;51.600;8.034;2023-01-29T13:02:13;35.50;;;18.92;;
32876;SDS011;19226;51.600;8.034;2023-01-29T13:08:49;43.13;;;20.17;;
32876;SDS011;19226;51.600;8.034;2023-01-29T13:12:04;37.45;;;19.52;;
32876;SDS011;19226;51.600;8.034;2023-01-29T13:14:57;36.67;;;17.98;;
32876;SDS011;19226;51.600;8.034;2023-01-29T13:20:46;35.88;;;18.73;;
32876;SDS011;19226;51.600;8.034;2023-01-29T13:26:02;34.78;;;17.73;;
32876;SDS011;19226;51.600;8.034;2023-01-29T13:28:30;35.00;;;19.45;;
32876;SDS011;19226;51.600;8.034;2023-01-29T13:31:57;35.35;;;18.30;;
32876;SDS011;19226;51.600;8.034;2023-01-29T13:37:03;34.13;;;18.40;;
32876;SDS011;19226;51.600;8.034;2023-01-29T13:39:55;29.80;;;17.50;;
32876;SDS011;19226;51.600;8.034;2023-01-29T13:42:32;31.80;;;18.48;;
32876;SDS011;19226;51.600;8.034;2023-01-29T13:45:21;35.30;;;19.35;;
32876;SDS011;19226;51.600;8.034;2023-01-29T13:50:52;34.80;;;19.98;;
32876;SDS011;19226;51.600;8.034;2023-01-29T14:00:51;39.42;;;20.70;;
32876;SDS011;19226;51.600;8.034;2023-01-29T14:06:07;35.08;;;19.65;;
32876;SDS011;19226;51.600;8.034;2023-01-29T14:13:47;37.10;;;18.23;;
32876;SDS011;19226;51.600;8.034;2023-01-29T14:18:47;35.50;;;19.55;;
32876;SDS011;19226;51.600;8.034;2023-01-29T14:21:20;45.55;;;20.45;;
32876;SDS011;19226;51.600;8.034;2023-01-29T14:27:23;39.33;;;20.80;;
32876;SDS011;19226;51.600;8.034;2023-01-29T14:32:50;40.92;;;21.95;;
32876;SDS011;19226;51.600;8.034;2023-01-29T14:45:34;41.97;;;20.75;;
32876;SDS011;19226;51.600;8.034;2023-01-29T14:56:59;28.42;;;14.55;;
32876;SDS011;19226;51.600;8.034;2023-01-29T15:03:00;37.28;;;19.13;;
32876;SDS011;19226;51.600;8.034;2023-01-29T15:05:40;39.83;;;19.73;;
32876;SDS011;19226;51.600;8.034;2023-01-29T15:08:22;39.67;;;21.02;;
32876;SDS011;19226;51.600;8.034;2023-01-29T15:10:55;43.83;;;20.02;;
32876;SDS011;19226;51.600;8.034;2023-01-29T15:17:14;34.72;;;19.13;;
32876;SDS011;19226;51.600;8.034;2023-01-29T15:20:23;31.58;;;18.45;;
32876;SDS011;19226;51.600;8.034;2023-01-29T15:22:53;37.58;;;19.52;;
32876;SDS011;19226;51.600;8.034;2023-01-29T15:28:30;35.38;;;17.25;;
32876;SDS011;19226;51.600;8.034;2023-01-29T15:33:54;32.90;;;18.60;;
32876;SDS011;19226;51.600;8.034;2023-01-29T15:36:23;34.83;;;18.00;;
32876;SDS011;19226;51.600;8.034;2023-01-29T15:39:38;34.45;;;17.65;;
32876;SDS011;19226;51.600;8.034;2023-01-29T15:41:38;30.20;;;16.73;;
32876;SDS011;19226;51.600;8.034;2023-01-29T15:44:16;33.67;;;17.85;;
32876;SDS011;19226;51.600;8.034;2023-01-29T15:46:45;34.88;;;17.83;;
32876;SDS011;19226;51.600;8.034;2023-01-29T15:52:04;32.03;;;17.38;;
32876;SDS011;19226;51.600;8.034;2023-01-29T15:55:21;27.02;;;15.07;;
32876;SDS011;19226;51.600;8.034;2023-01-29T15:57:48;28.40;;;15.45;;
32876;SDS011;19226;51.600;8.034;2023-01-29T16:03:12;30.75;;;15.15;;
32876;SDS011;19226;51.600;8.034;2023-01-29T16:08:45;28.27;;;15.02;;
32876;SDS011;19226;51.600;8.034;2023-01-29T16:11:17;34.90;;;15.43;;
32876;SDS011;19226;51.600;8.034;2023-01-29T16:13:47;28.17;;;14.98;;
32876;SDS011;19226;51.600;8.034;2023-01-29T16:21:39;34.47;;;15.73;;
32876;SDS011;19226;51.600;8.034;2023-01-29T16:24:13;24.45;;;14.02;;
32876;SDS011;19226;51.600;8.034;2023-01-29T16:26:50;27.30;;;14.45;;
32876;SDS011;19226;51.600;8.034;2023-01-29T16:29:28;27.90;;;15.10;;
32876;SDS011;19226;51.600;8.034;2023-01-29T16:31:59;26.55;;;14.60;;
32876;SDS011;19226;51.600;8.034;2023-01-29T16:38:04;25.23;;;14.13;;
32876;SDS011;19226;51.600;8.034;2023-01-29T16:40:41;28.50;;;12.85;;
32876;SDS011;19226;51.600;8.034;2023-01-29T16:43:47;25.88;;;12.77;;
32876;SDS011;19226;51.600;8.034;2023-01-29T16:46:49;23.20;;;13.30;;
32876;SDS011;19226;51.600;8.034;2023-01-29T16:58:23;24.55;;;14.07;;
32876;SDS011;19226;51.600;8.034;2023-01-29T17:01:02;28.00;;;13.30;;
32876;SDS011;19226;51.600;8.034;2023-01-29T17:03:33;25.08;;;13.95;;
32876;SDS011;19226;51.600;8.034;2023-01-29T17:06:12;24.37;;;13.70;;
32876;SDS011;19226;51.600;8.034;2023-01-29T17:08:47;30.05;;;14.32;;
32876;SDS011;19226;51.600;8.034;2023-01-29T17:14:15;25.30;;;13.90;;
32876;SDS011;19226;51.600;8.034;2023-01-29T17:23:24;21.98;;;12.93;;
32876;SDS011;19226;51.600;8.034;2023-01-29T17:25:54;31.02;;;14.23;;
32876;SDS011;19226;51.600;8.034;2023-01-29T17:28:22;28.50;;;13.77;;
32876;SDS011;19226;51.600;8.034;2023-01-29T17:30:55;25.05;;;12.48;;
32876;SDS011;19226;51.600;8.034;2023-01-29T17:33:22;23.70;;;12.70;;
32876;SDS011;19226;51.600;8.034;2023-01-29T17:35:50;26.50;;;13.77;;
32876;SDS011;19226;51.600;8.034;2023-01-29T17:38:17;25.45;;;13.57;;
32876;SDS011;19226;51.600;8.034;2023-01-29T17:43:27;25.02;;;14.02;;
32876;SDS011;19226;51.600;8.034;2023-01-29T17:45:55;27.02;;;14.80;;
32876;SDS011;19226;51.600;8.034;2023-01-29T17:48:23;27.23;;;14.63;;
32876;SDS011;19226;51.600;8.034;2023-01-29T17:50:54;26.53;;;13.53;;
32876;SDS011;19226;51.600;8.034;2023-01-29T17:56:17;28.30;;;14.07;;
32876;SDS011;19226;51.600;8.034;2023-01-29T17:59:01;30.63;;;15.75;;
32876;SDS011;19226;51.600;8.034;2023-01-29T18:04:58;31.52;;;14.38;;
32876;SDS011;19226;51.600;8.034;2023-01-29T18:10:49;25.48;;;13.15;;
32876;SDS011;19226;51.600;8.034;2023-01-29T18:13:15;29.77;;;15.55;;
32876;SDS011;19226;51.600;8.034;2023-01-29T18:15:41;37.55;;;15.73;;
32876;SDS011;19226;51.600;8.034;2023-01-29T18:18:09;30.48;;;16.25;;
32876;SDS011;19226;51.600;8.034;2023-01-29T18:20:38;32.47;;;17.70;;
32876;SDS011;19226;51.600;8.034;2023-01-29T18:23:06;30.15;;;15.93;;
32876;SDS011;19226;51.600;8.034;2023-01-29T18:25:33;27.90;;;15.43;;
32876;SDS011;19226;51.600;8.034;2023-01-29T18:31:07;29.93;;;14.50;;
32876;SDS011;19226;51.600;8.034;2023-01-29T18:36:57;37.97;;;15.95;;
32876;SDS011;19226;51.600;8.034;2023-01-29T18:42:54;34.13;;;14.43;;
32876;SDS011;19226;51.600;8.034;2023-01-29T18:45:26;30.58;;;15.88;;
32876;SDS011;19226;51.600;8.034;2023-01-29T18:47:53;33.45;;;17.75;;
32876;SDS011;19226;51.600;8.034;2023-01-29T18:50:34;33.70;;;18.30;;
32876;SDS011;19226;51.600;8.034;2023-01-29T18:53:01;31.40;;;19.00;;
32876;SDS011;19226;51.600;8.034;2023-01-29T18:55:30;31.20;;;16.25;;
32876;SDS011;19226;51.600;8.034;2023-01-29T18:58:02;29.42;;;15.52;;
32876;SDS011;19226;51.600;8.034;2023-01-29T19:00:37;30.25;;;15.80;;
32876;SDS011;19226;51.600;8.034;2023-01-29T19:03:03;48.65;;;24.88;;
32876;SDS011;19226;51.600;8.034;2023-01-29T19:07:59;37.20;;;20.52;;
32876;SDS011;19226;51.600;8.034;2023-01-29T19:10:28;29.10;;;15.63;;
32876;SDS011;19226;51.600;8.034;2023-01-29T19:21:59;26.17;;;12.80;;
32876;SDS011;19226;51.600;8.034;2023-01-29T19:24:37;24.52;;;13.23;;
32876;SDS011;19226;51.600;8.034;2023-01-29T19:27:04;26.33;;;13.82;;
32876;SDS011;19226;51.600;8.034;2023-01-29T19:29:36;27.17;;;13.48;;
32876;SDS011;19226;51.600;8.034;2023-01-29T19:32:02;24.52;;;13.63;;
32876;SDS011;19226;51.600;8.034;2023-01-29T19:34:29;24.00;;;13.75;;
32876;SDS011;19226;51.600;8.034;2023-01-29T19:36:57;29.27;;;14.15;;
32876;SDS011;19226;51.600;8.034;2023-01-29T19:39:26;25.23;;;13.25;;
32876;SDS011;19226;51.600;8.034;2023-01-29T19:41:59;25.17;;;13.15;;
32876;SDS011;19226;51.600;8.034;2023-01-29T19:44:30;28.00;;;13.20;;
32876;SDS011;19226;51.600;8.034;2023-01-29T19:46:56;26.05;;;14.18;;
32876;SDS011;19226;51.600;8.034;2023-01-29T19:49:31;29.02;;;13.68;;
32876;SDS011;19226;51.600;8.034;2023-01-29T19:52:00;23.38;;;13.18;;
32876;SDS011;19226;51.600;8.034;2023-01-29T19:54:26;24.65;;;12.70;;
32876;SDS011;19226;51.600;8.034;2023-01-29T19:56:54;31.15;;;14.07;;
32876;SDS011;19226;51.600;8.034;2023-01-29T20:02:07;25.92;;;13.65;;
32876;SDS011;19226;51.600;8.034;2023-01-29T20:04:33;24.45;;;13.48;;
32876;SDS011;19226;51.600;8.034;2023-01-29T20:07:00;24.20;;;13.88;;
32876;SDS011;19226;51.600;8.034;2023-01-29T20:09:27;27.70;;;14.10;;
32876;SDS011;19226;51.600;8.034;2023-01-29T20:11:54;22.65;;;12.57;;
32876;SDS011;19226;51.600;8.034;2023-01-29T20:17:49;25.52;;;13.05;;
32876;SDS011;19226;51.600;8.034;2023-01-29T20:20:16;22.58;;;12.48;;
32876;SDS011;19226;51.600;8.034;2023-01-29T20:22:42;30.40;;;13.20;;
32876;SDS011;19226;51.600;8.034;2023-01-29T20:25:10;26.95;;;13.55;;
32876;SDS011;19226;51.600;8.034;2023-01-29T20:30:07;24.63;;;12.55;;
32876;SDS011;19226;51.600;8.034;2023-01-29T20:32:37;27.30;;;13.50;;
32876;SDS011;19226;51.600;8.034;2023-01-29T20:37:53;23.35;;;13.60;;
32876;SDS011;19226;51.600;8.034;2023-01-29T20:40:26;23.48;;;12.20;;
32876;SDS011;19226;51.600;8.034;2023-01-29T20:42:53;26.17;;;13.50;;
32876;SDS011;19226;51.600;8.034;2023-01-29T20:45:20;21.75;;;12.32;;
32876;SDS011;19226;51.600;8.034;2023-01-29T20:47:47;26.95;;;12.30;;
32876;SDS011;19226;51.600;8.034;2023-01-29T20:50:16;24.70;;;11.98;;
32876;SDS011;19226;51.600;8.034;2023-01-29T20:52:46;22.42;;;12.80;;
32876;SDS011;19226;51.600;8.034;2023-01-29T20:58:05;21.55;;;11.43;;
32876;SDS011;19226;51.600;8.034;2023-01-29T21:00:31;28.60;;;12.35;;
32876;SDS011;19226;51.600;8.034;2023-01-29T21:02:59;23.30;;;12.00;;
32876;SDS011;19226;51.600;8.034;2023-01-29T21:05:32;20.63;;;12.02;;
32876;SDS011;19226;51.600;8.034;2023-01-29T21:08:01;27.87;;;12.43;;
32876;SDS011;19226;51.600;8.034;2023-01-29T21:12:59;21.77;;;12.32;;
32876;SDS011;19226;51.600;8.034;2023-01-29T21:15:27;18.88;;;10.30;;
32876;SDS011;19226;51.600;8.034;2023-01-29T21:17:58;20.13;;;11.75;;
32876;SDS011;19226;51.600;8.034;2023-01-29T21:20:29;18.40;;;10.73;;
32876;SDS011;19226;51.600;8.034;2023-01-29T21:23:04;23.80;;;12.63;;
32876;SDS011;19226;51.600;8.034;2023-01-29T21:25:30;23.95;;;12.02;;